Time;durP1;ratioP1;P1;durP2;ratioP2;P2;SDS_P1;SDS_P2;PMS_P1;PMS_P2;Temp;Humidity;BMP_temperature;BMP_pressure;BME280_temperature;BME280_humidity;BME280_pressure;Samples;Min_cycle;Max_cycle;Signal;HPM_P1;HPM_P2
2022/03/12 00:00:56;;;;;;;13.35;7.45;;;9.90;68.20;;;;;;4927780;29;20324;-87
2022/03/12 00:03:35;;;;;;;11.68;8.00;;;9.90;67.90;;;;;;4908367;29;20065;-88
2022/03/12 00:06:12;;;;;;;12.55;8.15;;;9.90;68.20;;;;;;4920375;29;20040;-89
2022/03/12 00:11:58;;;;;;;14.75;7.65;;;9.90;69.40;;;;;;4896938;29;20043;-88
2022/03/12 00:14:26;;;;;;;10.65;7.63;;;9.90;68.90;;;;;;4904191;29;20040;-91
2022/03/12 00:17:22;;;;;;;10.38;7.07;;;9.80;69.40;;;;;;4904324;29;20184;-87
2022/03/12 00:20:29;;;;;;;;;;;;;;;;;;;;;
2022/03/12 00:22:56;;;;;;;11.75;7.40;;;9.80;71.00;;;;;;4905112;29;20560;-88
2022/03/12 00:25:33;;;;;;;11.52;7.45;;;9.70;69.50;;;;;;4899145;29;20052;-88
2022/03/12 00:27:58;;;;;;;13.23;7.80;;;9.80;69.00;;;;;;4898467;29;20035;-89
2022/03/12 00:30:24;;;;;;;12.07;7.30;;;9.80;69.00;;;;;;4898533;29;20036;-89
2022/03/12 00:32:51;;;;;;;14.30;8.02;;;9.70;70.00;;;;;;4899140;29;20470;-90
2022/03/12 00:35:18;;;;;;;13.77;8.27;;;9.70;69.80;;;;;;4898955;29;20116;-89
2022/03/12 00:37:45;;;;;;;11.35;7.45;;;9.70;69.00;;;;;;4899681;29;20051;-91
2022/03/12 00:40:39;;;;;;;10.50;7.25;;;9.70;70.50;;;;;;4900501;29;20040;-89
2022/03/12 00:43:09;;;;;;;12.88;7.03;;;9.70;70.60;;;;;;4883715;29;20037;-89
2022/03/12 00:45:49;;;;;;;11.10;6.75;;;9.60;70.90;;;;;;4899794;29;20037;-91
2022/03/12 00:48:16;;;;;;;9.93;6.75;;;9.50;71.50;;;;;;4901529;29;20037;-88
2022/03/12 00:50:42;;;;;;;9.25;6.15;;;9.60;72.50;;;;;;4904672;29;20039;-90
2022/03/12 00:53:07;;;;;;;12.05;6.90;;;9.50;72.70;;;;;;4904555;29;20395;-89
2022/03/12 00:55:36;;;;;;;10.95;6.80;;;9.50;71.00;;;;;;4904710;29;20056;-91
2022/03/12 00:58:06;;;;;;;12.27;7.00;;;9.50;70.10;;;;;;4907043;29;20096;-88
2022/03/12 01:00:34;;;;;;;11.63;7.15;;;9.50;70.60;;;;;;4906349;29;20119;-89
2022/03/12 01:03:01;;;;;;;12.27;6.97;;;9.50;70.30;;;;;;4907325;29;20493;-89
2022/03/12 01:05:59;;;;;;;11.65;7.22;;;9.50;72.10;;;;;;4906528;29;20091;-89
2022/03/12 01:08:32;;;;;;;12.65;7.85;;;9.50;69.60;;;;;;4910763;29;20112;-89
2022/03/12 01:11:04;;;;;;;9.70;6.78;;;9.40;71.40;;;;;;4913857;29;20045;-89
2022/03/12 01:13:43;;;;;;;12.63;7.40;;;9.50;71.60;;;;;;4939090;29;20036;-88
2022/03/12 01:16:09;;;;;;;10.57;7.30;;;9.50;69.60;;;;;;4930063;29;20039;-87
2022/03/12 01:18:38;;;;;;;11.35;7.18;;;9.50;70.10;;;;;;4926339;29;20052;-87
2022/03/12 01:21:10;;;;;;;10.95;7.38;;;9.50;70.60;;;;;;4940780;28;20024;-86
2022/03/12 01:23:36;;;;;;;12.88;7.15;;;9.50;71.40;;;;;;4945545;29;20024;-89
2022/03/12 01:26:02;;;;;;;12.43;7.55;;;9.60;71.40;;;;;;4941211;29;20313;-90
2022/03/12 01:28:27;;;;;;;12.57;7.60;;;9.60;70.80;;;;;;4940422;29;20024;-88
2022/03/12 01:30:54;;;;;;;11.73;7.63;;;9.60;71.30;;;;;;4921629;29;20024;-89
2022/03/12 01:33:20;;;;;;;12.82;7.55;;;9.60;70.30;;;;;;4915255;29;20032;-91
2022/03/12 01:35:46;;;;;;;11.70;7.38;;;9.60;70.30;;;;;;4906475;29;20431;-89
2022/03/12 01:38:12;;;;;;;13.57;8.00;;;9.70;71.30;;;;;;4893729;29;20048;-88
2022/03/12 01:40:38;;;;;;;10.20;6.78;;;9.70;70.80;;;;;;4918366;29;20131;-87
2022/03/12 01:43:05;;;;;;;13.75;8.20;;;9.70;71.00;;;;;;4921413;29;20043;-88
2022/03/12 01:45:31;;;;;;;11.90;7.82;;;9.70;70.50;;;;;;4901147;29;20028;-88
2022/03/12 01:47:59;;;;;;;10.75;7.30;;;9.70;69.90;;;;;;4885340;29;20036;-88
2022/03/12 01:50:28;;;;;;;12.05;7.50;;;9.80;71.50;;;;;;4909052;29;20395;-88
2022/03/12 01:52:58;;;;;;;12.43;7.75;;;9.80;71.70;;;;;;4896886;29;20078;-89
2022/03/12 01:55:30;;;;;;;12.40;8.02;;;9.80;72.10;;;;;;4898313;29;20045;-88
2022/03/12 01:57:58;;;;;;;10.30;7.22;;;9.80;70.90;;;;;;4881648;29;20036;-89
2022/03/12 02:00:29;;;;;;;12.50;7.85;;;9.70;72.00;;;;;;4892928;29;20177;-88
2022/03/12 02:02:56;;;;;;;10.20;7.38;;;9.70;72.60;;;;;;4897655;29;20041;-89
2022/03/12 02:05:27;;;;;;;11.60;7.88;;;9.70;73.30;;;;;;4903413;29;20092;-88
2022/03/12 02:07:58;;;;;;;13.13;7.80;;;9.70;73.60;;;;;;4912580;29;20048;-89
2022/03/12 02:10:25;;;;;;;12.60;8.38;;;9.60;74.60;;;;;;4915269;29;20068;-89
2022/03/12 02:12:51;;;;;;;13.05;7.93;;;9.60;74.80;;;;;;4904943;29;20119;-89
2022/03/12 02:15:22;;;;;;;13.30;7.63;;;9.50;75.00;;;;;;4896824;29;20032;-89
2022/03/12 02:17:49;;;;;;;12.95;7.63;;;9.40;76.30;;;;;;4881442;29;20033;-88
2022/03/12 02:20:20;;;;;;;12.80;8.40;;;9.30;77.80;;;;;;4896567;29;20040;-89
2022/03/12 02:22:46;;;;;;;11.10;8.30;;;9.20;78.30;;;;;;4894280;29;20037;-87
2022/03/12 02:25:13;;;;;;;14.52;8.02;;;9.10;79.30;;;;;;4879721;29;20064;-89
2022/03/12 02:27:40;;;;;;;14.13;8.60;;;9.10;79.60;;;;;;4897560;29;20024;-87
2022/03/12 02:30:08;;;;;;;12.80;8.00;;;9.10;79.10;;;;;;4889362;29;20064;-89
2022/03/12 02:32:35;;;;;;;12.35;8.02;;;9.10;79.40;;;;;;4880147;29;20032;-88
2022/03/12 02:35:01;;;;;;;16.60;8.55;;;9.10;80.00;;;;;;4895908;29;20034;-89
2022/03/12 02:37:32;;;;;;;14.68;8.68;;;9.00;81.10;;;;;;4895073;29;20043;-90
2022/03/12 02:40:01;;;;;;;13.35;8.73;;;9.00;80.60;;;;;;4907679;29;20107;-89
2022/03/12 02:42:28;;;;;;;11.77;7.90;;;8.90;81.00;;;;;;4895844;29;20041;-88
2022/03/12 02:44:54;;;;;;;17.15;9.55;;;8.80;82.40;;;;;;4911531;29;20093;-88
2022/03/12 02:47:22;;;;;;;13.23;9.13;;;8.80;82.40;;;;;;4895323;29;20049;-89
2022/03/12 02:49:59;;;;;;;11.07;8.05;;;8.80;82.70;;;;;;4906022;29;20250;-88
2022/03/12 02:52:27;;;;;;;15.82;8.25;;;8.80;82.90;;;;;;4896448;29;20795;-89
2022/03/12 02:54:55;;;;;;;12.85;8.35;;;8.80;83.00;;;;;;4883284;29;20031;-89
2022/03/12 02:57:23;;;;;;;14.70;8.82;;;8.90;82.70;;;;;;4902399;29;20509;-89
2022/03/12 02:59:50;;;;;;;14.00;8.77;;;8.90;82.90;;;;;;4908699;29;20052;-88
2022/03/12 03:02:17;;;;;;;12.45;8.68;;;9.00;82.40;;;;;;4881157;29;20037;-89
2022/03/12 03:04:42;;;;;;;12.65;8.07;;;9.10;81.60;;;;;;4900205;29;20044;-90
2022/03/12 03:07:11;;;;;;;12.88;8.32;;;9.10;81.80;;;;;;4920526;29;20028;-91
2022/03/12 03:09:38;;;;;;;13.60;8.07;;;9.30;80.80;;;;;;4918040;29;20033;-88
2022/03/12 03:12:09;;;;;;;13.43;8.45;;;9.20;80.70;;;;;;4916996;29;20060;-88
2022/03/12 03:14:36;;;;;;;12.20;8.43;;;9.30;80.10;;;;;;4918772;29;20047;-89
2022/03/12 03:17:03;;;;;;;13.60;8.88;;;9.30;79.90;;;;;;4917302;29;20133;-89
2022/03/12 03:19:29;;;;;;;16.20;8.55;;;9.30;79.80;;;;;;4917353;29;20051;-89
2022/03/12 03:21:58;;;;;;;15.30;9.48;;;9.40;79.30;;;;;;4917150;29;20036;-89
2022/03/12 03:24:25;;;;;;;13.25;8.55;;;9.40;78.80;;;;;;4917215;29;20103;-90
2022/03/12 03:26:56;;;;;;;13.88;8.68;;;9.40;79.10;;;;;;4901550;29;20040;-89
2022/03/12 03:29:24;;;;;;;14.60;9.25;;;9.40;79.60;;;;;;4917607;29;20079;-89
2022/03/12 03:31:50;;;;;;;13.75;8.65;;;9.50;79.50;;;;;;4917705;29;20088;-90
2022/03/12 03:34:17;;;;;;;15.30;9.02;;;9.40;79.40;;;;;;4916926;29;20039;-88
2022/03/12 03:36:43;;;;;;;13.55;8.73;;;9.50;79.40;;;;;;4917256;29;20048;-88
2022/03/12 03:39:09;;;;;;;12.75;8.40;;;9.40;79.90;;;;;;4917251;29;20114;-88
2022/03/12 03:41:35;;;;;;;13.90;8.90;;;9.50;80.00;;;;;;4917127;29;20033;-90
2022/03/12 03:44:01;;;;;;;13.57;8.75;;;9.40;79.80;;;;;;4916994;29;20043;-87
2022/03/12 03:46:27;;;;;;;13.80;9.43;;;9.50;80.10;;;;;;4917278;29;20382;-89
2022/03/12 03:48:53;;;;;;;18.25;9.93;;;9.50;79.60;;;;;;4917288;29;20123;-89
2022/03/12 03:51:20;;;;;;;15.13;9.43;;;9.50;78.90;;;;;;4916649;29;20093;-87
2022/03/12 03:53:46;;;;;;;13.15;8.95;;;9.50;79.20;;;;;;4916800;29;20047;-88
2022/03/12 03:56:12;;;;;;;14.07;9.55;;;9.50;79.50;;;;;;4916863;29;20028;-90
2022/03/12 03:58:37;;;;;;;13.30;9.73;;;9.50;80.00;;;;;;4917160;29;20084;-89
2022/03/12 04:01:07;;;;;;;14.02;9.48;;;9.50;79.40;;;;;;4917763;29;20387;-88
2022/03/12 04:03:33;;;;;;;15.32;10.27;;;9.50;78.70;;;;;;4916951;29;20028;-87
2022/03/12 04:06:04;;;;;;;16.25;9.43;;;9.60;79.30;;;;;;4916837;29;20111;-90
2022/03/12 04:08:30;;;;;;;15.05;9.38;;;9.60;79.10;;;;;;4918454;29;20059;-89
2022/03/12 04:10:57;;;;;;;12.95;8.63;;;9.60;79.90;;;;;;4916498;29;20507;-90
2022/03/12 04:13:23;;;;;;;18.45;10.23;;;9.60;80.00;;;;;;4916533;29;20082;-90
2022/03/12 04:15:51;;;;;;;13.15;8.95;;;9.50;80.40;;;;;;4916734;29;20028;-89
2022/03/12 04:18:18;;;;;;;15.52;9.60;;;9.50;79.90;;;;;;4916589;29;20080;-88
2022/03/12 04:20:46;;;;;;;14.85;9.43;;;9.50;80.50;;;;;;4916635;29;20029;-90
2022/03/12 04:23:12;;;;;;;16.23;9.63;;;9.50;80.50;;;;;;4917610;29;20040;-88
2022/03/12 04:25:39;;;;;;;12.45;9.40;;;9.50;80.80;;;;;;4920325;29;20029;-89
2022/03/12 04:28:06;;;;;;;15.65;9.05;;;9.50;81.60;;;;;;4920518;29;20044;-88
2022/03/12 04:30:32;;;;;;;14.82;10.18;;;9.50;82.00;;;;;;4920579;29;20494;-88
2022/03/12 04:32:58;;;;;;;17.42;9.45;;;9.50;81.90;;;;;;4920261;29;20032;-89
2022/03/12 04:35:24;;;;;;;13.75;9.10;;;9.50;82.00;;;;;;4904589;29;20399;-89
2022/03/12 04:37:50;;;;;;;13.50;9.43;;;9.60;83.00;;;;;;4920558;29;20051;-88
2022/03/12 04:40:21;;;;;;;16.88;9.60;;;9.50;83.40;;;;;;4904843;29;20036;-89
2022/03/12 04:42:46;;;;;;;17.17;9.13;;;9.50;83.50;;;;;;4920301;29;20055;-89
2022/03/12 04:45:14;;;;;;;12.48;8.60;;;9.50;84.20;;;;;;4904851;29;20075;-88
2022/03/12 04:47:48;;;;;;;14.40;9.18;;;9.40;84.60;;;;;;4920757;29;20479;-89
2022/03/12 04:50:16;;;;;;;15.55;8.82;;;9.40;84.60;;;;;;4920349;29;20036;-89
2022/03/12 04:52:44;;;;;;;14.20;8.88;;;9.30;85.30;;;;;;4919479;29;20043;-89
2022/03/12 04:55:12;;;;;;;13.52;9.20;;;9.30;85.70;;;;;;4921068;29;20115;-90
2022/03/12 04:57:39;;;;;;;13.45;8.95;;;9.20;86.10;;;;;;4920562;29;20149;-89
2022/03/12 05:00:07;;;;;;;15.55;10.05;;;9.10;86.60;;;;;;4919721;29;20052;-89
2022/03/12 05:02:33;;;;;;;15.98;9.95;;;9.10;85.80;;;;;;4919439;29;20033;-87
2022/03/12 05:04:59;;;;;;;14.57;9.65;;;9.00;86.10;;;;;;4919874;29;20562;-88
2022/03/12 05:07:26;;;;;;;17.13;9.57;;;9.00;85.50;;;;;;4919468;29;20079;-89
2022/03/12 05:09:54;;;;;;;17.63;9.93;;;9.00;86.50;;;;;;4920271;29;20024;-90
2022/03/12 05:12:23;;;;;;;15.65;9.45;;;8.90;86.40;;;;;;4919502;29;20075;-89
2022/03/12 05:14:51;;;;;;;14.45;9.98;;;8.80;86.60;;;;;;4920259;29;20074;-87
2022/03/12 05:17:19;;;;;;;14.63;9.80;;;8.70;87.00;;;;;;4904228;29;20136;-89
2022/03/12 05:19:45;;;;;;;16.10;10.48;;;8.70;87.20;;;;;;4919735;29;20096;-89
2022/03/12 05:22:11;;;;;;;13.07;9.20;;;8.70;87.50;;;;;;4921560;29;20028;-88
2022/03/12 05:24:37;;;;;;;16.10;9.60;;;8.60;87.80;;;;;;4920800;29;20040;-89
2022/03/12 05:27:04;;;;;;;16.48;9.73;;;8.60;87.10;;;;;;4903987;29;20035;-89
2022/03/12 05:29:33;;;;;;;14.55;9.98;;;8.50;87.90;;;;;;4924540;29;20072;-88
2022/03/12 05:31:58;;;;;;;14.50;9.52;;;8.50;88.20;;;;;;4909840;29;20103;-88
2022/03/12 05:34:24;;;;;;;15.43;9.40;;;8.40;88.30;;;;;;4925774;29;20131;-88
2022/03/12 05:36:50;;;;;;;13.68;9.15;;;8.40;88.10;;;;;;4927338;29;20072;-89
2022/03/12 05:39:17;;;;;;;14.05;9.45;;;8.40;89.00;;;;;;4930329;29;20072;-88
2022/03/12 05:41:44;;;;;;;15.13;9.30;;;8.30;88.80;;;;;;4924812;29;20043;-87
2022/03/12 05:44:14;;;;;;;15.38;9.55;;;8.30;88.50;;;;;;4929002;29;20043;-88
2022/03/12 05:46:41;;;;;;;13.63;9.50;;;8.20;89.00;;;;;;4926452;29;20115;-88
2022/03/12 05:49:08;;;;;;;17.30;9.63;;;8.30;89.50;;;;;;4919561;29;20554;-87
2022/03/12 05:51:37;;;;;;;14.90;9.50;;;8.20;89.40;;;;;;4919634;29;20036;-88
2022/03/12 05:54:03;;;;;;;16.20;9.70;;;8.20;89.80;;;;;;4918891;29;20032;-88
2022/03/12 05:56:29;;;;;;;13.32;8.57;;;8.10;89.70;;;;;;4920960;29;20043;-89
2022/03/12 05:58:55;;;;;;;15.02;9.23;;;8.10;90.00;;;;;;4919360;29;20051;-88
2022/03/12 06:01:21;;;;;;;13.98;9.40;;;8.10;90.00;;;;;;4918990;29;20024;-90
2022/03/12 06:03:47;;;;;;;16.25;9.93;;;8.10;90.00;;;;;;4919032;29;20043;-87
2022/03/12 06:06:13;;;;;;;12.18;9.15;;;8.10;90.30;;;;;;4917345;29;20047;-84
2022/03/12 06:08:40;;;;;;;16.67;9.15;;;8.00;90.20;;;;;;4915113;29;20036;-87
2022/03/12 06:11:06;;;;;;;16.10;9.55;;;8.00;90.40;;;;;;4914809;29;20063;-86
2022/03/12 06:13:33;;;;;;;15.32;10.05;;;8.00;90.30;;;;;;4915085;29;20120;-86
2022/03/12 06:16:00;;;;;;;16.00;9.82;;;7.90;90.50;;;;;;4914687;29;20734;-88
2022/03/12 06:18:35;;;;;;;14.70;9.43;;;7.90;90.50;;;;;;4917212;29;20059;-87
2022/03/12 06:21:02;;;;;;;14.80;10.10;;;8.00;90.40;;;;;;4916134;29;20048;-87
2022/03/12 06:23:28;;;;;;;15.82;9.07;;;7.90;90.40;;;;;;4916738;29;20067;-87
2022/03/12 06:25:55;;;;;;;14.52;9.55;;;7.90;90.80;;;;;;4917269;29;20028;-87
2022/03/12 06:28:21;;;;;;;17.33;9.98;;;7.90;90.90;;;;;;4916882;29;20039;-88
2022/03/12 06:30:48;;;;;;;15.32;9.52;;;7.90;91.00;;;;;;4917073;29;20040;-88
2022/03/12 06:33:18;;;;;;;14.80;9.65;;;7.90;91.20;;;;;;4916776;29;20099;-87
2022/03/12 06:35:44;;;;;;;16.35;9.43;;;8.00;91.20;;;;;;4916913;29;20055;-87
2022/03/12 06:38:10;;;;;;;15.40;10.40;;;8.00;91.20;;;;;;4916909;29;20032;-88
2022/03/12 06:40:36;;;;;;;15.88;10.35;;;8.00;91.10;;;;;;4916056;29;20270;-89
2022/03/12 06:43:07;;;;;;;15.45;10.35;;;8.00;91.40;;;;;;4916276;29;20044;-89
2022/03/12 06:45:34;;;;;;;16.17;9.48;;;8.00;91.50;;;;;;4899193;29;20407;-87
2022/03/12 06:48:00;;;;;;;16.35;9.25;;;8.00;91.50;;;;;;4915296;29;20080;-88
2022/03/12 06:50:27;;;;;;;14.10;8.75;;;8.00;91.50;;;;;;4917145;29;20075;-87
2022/03/12 06:52:54;;;;;;;17.50;9.68;;;8.10;91.60;;;;;;4915555;29;20408;-87
2022/03/12 06:55:28;;;;;;;13.43;9.20;;;8.10;91.60;;;;;;4918782;29;20108;-88
2022/03/12 06:57:55;;;;;;;13.38;9.23;;;8.10;91.60;;;;;;4917486;29;20059;-86
2022/03/12 07:00:30;;;;;;;15.68;8.75;;;8.10;92.00;;;;;;4914225;29;20052;-87
2022/03/12 07:02:57;;;;;;;14.50;9.30;;;8.20;92.30;;;;;;4912495;29;20099;-87
2022/03/12 07:05:23;;;;;;;13.40;9.48;;;8.20;92.40;;;;;;4914299;29;20044;-87
2022/03/12 07:07:51;;;;;;;14.02;9.52;;;8.30;92.10;;;;;;4914627;29;20427;-88
2022/03/12 07:10:17;;;;;;;14.07;9.07;;;8.30;92.50;;;;;;4915935;29;20032;-90
2022/03/12 07:12:44;;;;;;;13.65;9.63;;;8.30;92.60;;;;;;4899411;29;20048;-87
2022/03/12 07:15:10;;;;;;;14.95;9.10;;;8.40;92.40;;;;;;4913586;29;20036;-87
2022/03/12 07:17:36;;;;;;;14.35;9.10;;;8.40;92.80;;;;;;4914034;29;20446;-86
2022/03/12 07:20:03;;;;;;;12.40;8.48;;;8.40;92.40;;;;;;4913904;29;20076;-87
2022/03/12 07:22:31;;;;;;;13.40;8.73;;;8.50;92.70;;;;;;4913839;29;20079;-86
2022/03/12 07:24:57;;;;;;;12.93;9.15;;;8.50;92.90;;;;;;4897765;29;20040;-88
2022/03/12 07:27:24;;;;;;;11.40;8.02;;;8.60;92.70;;;;;;4914168;29;20494;-85
2022/03/12 07:29:50;;;;;;;13.73;9.20;;;8.60;92.90;;;;;;4914193;29;20060;-87
2022/03/12 07:32:16;;;;;;;15.43;10.00;;;8.70;93.00;;;;;;4914450;29;20399;-87
2022/03/12 07:34:42;;;;;;;12.93;9.15;;;8.70;93.00;;;;;;4898799;29;20043;-87
2022/03/12 07:37:11;;;;;;;11.30;8.25;;;8.70;93.10;;;;;;4917850;29;20051;-87
2022/03/12 07:39:38;;;;;;;11.63;8.15;;;8.80;93.30;;;;;;4915921;29;20044;-88
2022/03/12 07:42:05;;;;;;;13.85;7.88;;;8.80;93.40;;;;;;4914164;29;20066;-87
2022/03/12 07:44:31;;;;;;;12.95;8.20;;;8.90;93.50;;;;;;4929534;29;20040;-86
2022/03/12 07:46:57;;;;;;;13.07;9.20;;;9.00;93.50;;;;;;4913728;29;20132;-86
2022/03/12 07:49:24;;;;;;;11.82;8.25;;;9.10;93.50;;;;;;4915391;29;20032;-86
2022/03/12 07:51:50;;;;;;;12.23;8.85;;;9.10;93.60;;;;;;4914903;29;20032;-85
2022/03/12 07:54:16;;;;;;;11.45;8.38;;;9.20;93.60;;;;;;4916289;29;20471;-86
2022/03/12 07:56:43;;;;;;;12.13;8.18;;;9.30;93.80;;;;;;4915129;29;20059;-85
2022/03/12 07:59:10;;;;;;;16.02;8.98;;;9.30;93.80;;;;;;4913324;29;20040;-85
2022/03/12 08:01:37;;;;;;;15.27;9.20;;;9.30;94.00;;;;;;4913562;29;20091;-88
2022/03/12 08:04:04;;;;;;;11.32;8.07;;;9.40;94.20;;;;;;4913077;29;20047;-86
2022/03/12 08:06:30;;;;;;;12.70;9.10;;;9.40;94.30;;;;;;4913255;29;20680;-86
2022/03/12 08:08:57;;;;;;;11.15;8.23;;;9.40;94.50;;;;;;4913774;29;20040;-88
2022/03/12 08:11:28;;;;;;;12.48;8.63;;;9.50;94.70;;;;;;4916118;29;20100;-85
2022/03/12 08:14:03;;;;;;;13.57;8.85;;;9.60;94.90;;;;;;4915756;29;20704;-86
2022/03/12 08:16:32;;;;;;;12.13;8.63;;;9.60;95.10;;;;;;4915504;29;20088;-87
2022/03/12 08:18:59;;;;;;;15.02;8.88;;;9.70;95.40;;;;;;4915959;29;20056;-89
2022/03/12 08:21:25;;;;;;;11.55;8.20;;;9.90;95.40;;;;;;4920329;29;20040;-88
2022/03/12 08:23:50;;;;;;;12.05;8.10;;;9.90;95.50;;;;;;4918105;29;20055;-88
2022/03/12 08:26:16;;;;;;;12.50;8.35;;;10.00;95.70;;;;;;4907375;29;20040;-86
2022/03/12 08:28:43;;;;;;;12.93;8.10;;;10.20;95.90;;;;;;4919141;29;20036;-89
2022/03/12 08:31:08;;;;;;;12.02;7.90;;;10.30;96.00;;;;;;4919174;29;20130;-87
2022/03/12 08:33:35;;;;;;;11.82;8.27;;;10.30;96.20;;;;;;4923382;29;20060;-86
2022/03/12 08:36:04;;;;;;;11.55;7.72;;;10.50;96.50;;;;;;4922761;29;20028;-85
2022/03/12 08:38:32;;;;;;;11.32;7.93;;;10.60;96.90;;;;;;4909092;29;20111;-88
2022/03/12 08:40:58;;;;;;;12.30;8.05;;;10.70;97.20;;;;;;4918625;29;20071;-88
2022/03/12 08:43:24;;;;;;;9.60;6.90;;;10.80;97.70;;;;;;4906136;29;20063;-90
2022/03/12 08:45:49;;;;;;;10.77;7.03;;;10.80;97.60;;;;;;4920356;29;20103;-88
2022/03/12 08:48:17;;;;;;;10.73;8.07;;;10.80;97.80;;;;;;4920784;29;20495;-90
2022/03/12 08:50:44;;;;;;;13.70;8.10;;;10.90;97.90;;;;;;4933163;29;20036;-85
2022/03/12 08:53:10;;;;;;;10.75;7.85;;;10.90;98.10;;;;;;4939219;29;20087;-86
2022/03/12 08:55:38;;;;;;;13.10;7.57;;;11.00;98.20;;;;;;4939850;29;20021;-87
2022/03/12 08:58:04;;;;;;;11.52;8.38;;;11.00;98.40;;;;;;4940801;29;20024;-89
2022/03/12 09:00:31;;;;;;;11.50;7.35;;;11.10;98.40;;;;;;4939613;29;20032;-87
2022/03/12 09:03:00;;;;;;;11.35;8.65;;;11.10;98.50;;;;;;4939149;29;20032;-87
2022/03/12 09:05:26;;;;;;;11.80;8.18;;;11.20;98.60;;;;;;4941065;29;20029;-89
2022/03/12 09:07:52;;;;;;;12.85;8.75;;;11.30;98.70;;;;;;4940732;28;20040;-91
2022/03/12 09:10:20;;;;;;;12.25;8.05;;;11.30;98.90;;;;;;4943102;29;20053;-87
2022/03/12 09:12:46;;;;;;;12.98;8.23;;;11.40;99.10;;;;;;4943482;29;20035;-90
2022/03/12 09:15:13;;;;;;;11.82;7.38;;;11.50;99.10;;;;;;4943966;28;20048;-86
2022/03/12 09:17:40;;;;;;;10.48;7.32;;;11.60;99.20;;;;;;4943769;28;20047;-88
2022/03/12 09:20:07;;;;;;;13.30;8.23;;;11.70;99.20;;;;;;4943589;28;20060;-89
2022/03/12 09:22:32;;;;;;;10.30;7.88;;;11.80;99.20;;;;;;4943304;29;20035;-87
2022/03/12 09:25:03;;;;;;;11.73;7.47;;;11.90;99.30;;;;;;4943144;28;20091;-87
2022/03/12 09:27:29;;;;;;;9.57;7.22;;;12.00;99.30;;;;;;4942915;29;20033;-88
2022/03/12 09:29:55;;;;;;;11.10;7.30;;;12.10;99.40;;;;;;4936188;29;20047;-89
2022/03/12 09:32:21;;;;;;;9.50;7.13;;;12.20;99.30;;;;;;4926276;29;20024;-90
2022/03/12 09:34:47;;;;;;;12.38;7.13;;;12.30;99.40;;;;;;4941068;29;20055;-92
2022/03/12 09:37:12;;;;;;;11.05;6.95;;;12.50;99.50;;;;;;4927616;29;20036;-91
2022/03/12 09:39:38;;;;;;;11.13;7.10;;;12.60;99.20;;;;;;4933366;29;20070;-88
2022/03/12 09:42:04;;;;;;;11.70;7.18;;;12.80;99.00;;;;;;4935631;29;20024;-88
2022/03/12 09:44:30;;;;;;;10.75;6.35;;;13.10;98.90;;;;;;4919227;29;20047;-89
2022/03/12 09:46:56;;;;;;;8.85;6.63;;;13.30;98.40;;;;;;4921853;29;20039;-91
2022/03/12 09:49:22;;;;;;;9.27;6.68;;;13.50;98.40;;;;;;4922911;29;20074;-91
2022/03/12 09:51:49;;;;;;;10.23;6.55;;;13.80;97.70;;;;;;4922641;29;20073;-90
2022/03/12 09:54:15;;;;;;;9.85;6.13;;;14.10;97.70;;;;;;4923084;29;20231;-90
2022/03/12 09:56:42;;;;;;;10.20;5.97;;;14.30;97.60;;;;;;4922632;29;20024;-90
2022/03/12 09:59:07;;;;;;;10.50;6.57;;;14.50;97.10;;;;;;4921463;29;20031;-89
2022/03/12 10:01:33;;;;;;;11.30;6.18;;;14.50;96.80;;;;;;4921498;29;20459;-88
2022/03/12 10:03:59;;;;;;;8.40;6.07;;;14.60;96.90;;;;;;4922508;29;20060;-90
2022/03/12 10:06:25;;;;;;;8.27;5.57;;;14.70;96.90;;;;;;4922247;29;20043;-89
2022/03/12 10:08:52;;;;;;;8.25;5.30;;;14.80;96.70;;;;;;4921342;29;20455;-89
2022/03/12 10:11:18;;;;;;;8.05;5.00;;;14.70;97.00;;;;;;4920067;29;20040;-89
2022/03/12 10:13:44;;;;;;;9.48;6.07;;;14.60;97.00;;;;;;4920034;29;20040;-90
2022/03/12 10:16:11;;;;;;;8.27;5.82;;;14.40;96.90;;;;;;4920217;29;20044;-89
2022/03/12 10:18:36;;;;;;;9.20;5.88;;;14.30;97.00;;;;;;4921797;29;20040;-93
2022/03/12 10:21:03;;;;;;;8.88;5.30;;;14.30;97.20;;;;;;4920497;29;20160;-89
2022/03/12 10:23:29;;;;;;;8.15;5.32;;;14.30;97.30;;;;;;4908489;29;20025;-87
2022/03/12 10:25:54;;;;;;;9.30;5.13;;;14.60;96.90;;;;;;4914621;29;20048;-86
2022/03/12 10:28:20;;;;;;;6.45;4.93;;;14.60;96.70;;;;;;4927555;29;20068;-86
2022/03/12 10:30:46;;;;;;;9.65;5.13;;;14.70;96.90;;;;;;4925086;29;20052;-87
2022/03/12 10:33:25;;;;;;;7.70;4.10;;;15.00;96.70;;;;;;4923644;29;20033;-87
2022/03/12 10:35:52;;;;;;;6.05;3.72;;;15.20;96.50;;;;;;4923409;29;20095;-89
2022/03/12 10:38:22;;;;;;;8.43;3.83;;;15.10;96.30;;;;;;4924731;29;20025;-88
2022/03/12 10:40:48;;;;;;;6.40;3.20;;;15.00;95.60;;;;;;4923442;29;20115;-88
2022/03/12 10:43:14;;;;;;;6.95;3.25;;;15.00;95.90;;;;;;4924127;29;20032;-87
2022/03/12 10:45:53;;;;;;;7.03;3.65;;;15.00;95.70;;;;;;4924020;29;20471;-89
2022/03/12 10:48:21;;;;;;;6.05;3.45;;;14.90;95.00;;;;;;4927565;29;20032;-87
2022/03/12 10:50:50;;;;;;;8.05;4.07;;;14.70;95.50;;;;;;4936025;29;20084;-87
2022/03/12 10:53:17;;;;;;;6.38;3.47;;;14.60;95.50;;;;;;4934831;29;20063;-87
2022/03/12 10:55:46;;;;;;;9.40;3.95;;;14.40;95.50;;;;;;4922514;29;20040;-89
2022/03/12 10:58:20;;;;;;;7.28;3.85;;;14.30;95.60;;;;;;4904851;29;20084;-90
2022/03/12 11:00:54;;;;;;;6.10;3.88;;;14.20;95.60;;;;;;4923473;29;20040;-86
2022/03/12 11:03:25;;;;;;;7.90;4.03;;;14.10;95.90;;;;;;4922143;29;20044;-86
2022/03/12 11:05:52;;;;;;;8.82;4.20;;;14.10;95.90;;;;;;4914300;29;20209;-88
2022/03/12 11:08:25;;;;;;;7.72;4.00;;;14.10;96.20;;;;;;4916941;29;20092;-88
2022/03/12 11:10:59;;;;;;;7.25;4.13;;;14.10;96.30;;;;;;4934056;29;20043;-87
2022/03/12 11:13:47;;;;;;;8.75;4.43;;;14.20;96.30;;;;;;4914929;29;20059;-88
2022/03/12 11:16:21;;;;;;;6.30;3.78;;;14.30;96.00;;;;;;4929483;29;20095;-88
2022/03/12 11:18:53;;;;;;;7.05;3.63;;;14.30;96.40;;;;;;4927680;29;20036;-89
2022/03/12 11:21:37;;;;;;;8.25;4.30;;;14.50;96.60;;;;;;4921445;29;20040;-87
2022/03/12 11:24:25;;;;;;;5.43;3.78;;;14.60;95.90;;;;;;4890586;29;20517;-90
2022/03/12 11:26:58;;;;;;;9.82;4.45;;;14.70;96.20;;;;;;4867075;29;20036;-92
2022/03/12 11:29:28;;;;;;;7.32;4.10;;;14.70;95.90;;;;;;4902139;29;20055;-90
2022/03/12 11:31:58;;;;;;;6.07;4.03;;;14.60;95.90;;;;;;4902213;29;20129;-88
2022/03/12 11:34:40;;;;;;;6.90;4.38;;;14.70;95.90;;;;;;4898202;29;20044;-90
2022/03/12 11:37:20;;;;;;;8.75;4.20;;;15.10;96.00;;;;;;4930655;29;20107;-89
2022/03/12 11:39:47;;;;;;;8.52;4.82;;;15.50;95.60;;;;;;4903368;29;20047;-88
2022/03/12 11:42:23;;;;;;;6.75;4.22;;;15.90;94.90;;;;;;4917853;29;20047;-90
2022/03/12 11:45:00;;;;;;;6.65;3.75;;;16.30;94.60;;;;;;4897204;29;20500;-90
2022/03/12 11:47:34;;;;;;;6.30;3.80;;;17.00;94.10;;;;;;4899891;29;20510;-88
2022/03/12 11:50:08;;;;;;;7.90;3.70;;;17.50;93.90;;;;;;4913859;29;20103;-84
2022/03/12 11:52:35;;;;;;;6.60;3.67;;;17.80;93.40;;;;;;4894157;29;20202;-90
2022/03/12 11:55:03;;;;;;;8.63;3.85;;;17.60;93.20;;;;;;4888127;29;20032;-88
2022/03/12 11:57:35;;;;;;;7.32;3.92;;;17.20;92.80;;;;;;4896141;29;20047;-88
2022/03/12 12:00:05;;;;;;;9.32;4.03;;;17.00;93.40;;;;;;4895079;29;20075;-89
2022/03/12 12:02:33;;;;;;;7.57;4.00;;;17.00;93.20;;;;;;4896720;29;20745;-85
2022/03/12 12:05:06;;;;;;;7.57;4.05;;;17.10;93.40;;;;;;4894192;29;20077;-85
2022/03/12 12:07:36;;;;;;;;;;;17.30;92.80;;;;;;4897118;29;20057;-84
2022/03/12 12:10:07;;;;;;;5.93;3.58;;;17.00;92.90;;;;;;4903840;29;19907;-88
2022/03/12 12:12:34;;;;;;;9.25;4.45;;;17.10;93.50;;;;;;4897980;29;20052;-86
2022/03/12 12:15:04;;;;;;;9.02;4.90;;;17.10;93.30;;;;;;4893632;29;20093;-85
2022/03/12 12:17:32;;;;;;;9.00;4.93;;;17.00;92.90;;;;;;4896881;29;20033;-90
2022/03/12 12:19:58;;;;;;;8.00;5.03;;;16.80;92.70;;;;;;4896660;29;20127;-86
2022/03/12 12:22:24;;;;;;;7.55;4.53;;;16.80;92.80;;;;;;4898605;29;20037;-87
2022/03/12 12:24:55;;;;;;;7.15;4.25;;;17.00;92.70;;;;;;4882006;29;20084;-87
2022/03/12 12:27:23;;;;;;;6.93;3.83;;;17.20;92.50;;;;;;4898641;29;20037;-86
2022/03/12 12:29:56;;;;;;;7.78;5.28;;;17.10;92.50;;;;;;4899347;29;20036;-87
2022/03/12 12:32:26;;;;;;;10.30;4.72;;;17.00;92.30;;;;;;4897652;29;20056;-87
2022/03/12 12:35:06;;;;;;;7.50;5.28;;;17.00;92.70;;;;;;4897594;29;20032;-85
2022/03/12 12:37:52;;;;;;;8.15;4.35;;;16.90;92.20;;;;;;4897593;29;20037;-88
2022/03/12 12:40:32;;;;;;;9.65;4.05;;;16.70;92.00;;;;;;4897160;29;20045;-87
2022/03/12 12:43:05;;;;;;;8.10;4.03;;;16.70;92.40;;;;;;4881202;29;20503;-87
2022/03/12 12:45:38;;;;;;;10.95;4.18;;;17.00;92.50;;;;;;4902396;29;20495;-87
2022/03/12 12:48:18;;;;;;;8.97;4.17;;;17.40;92.40;;;;;;4902764;29;20044;-88
2022/03/12 12:51:05;;;;;;;5.85;3.40;;;17.90;92.10;;;;;;4901529;29;20067;-87
2022/03/12 12:53:35;;;;;;;9.23;4.63;;;18.50;91.70;;;;;;4901738;29;20041;-88
2022/03/12 12:56:18;;;;;;;6.57;3.65;;;18.60;90.30;;;;;;4901683;29;20061;-87
2022/03/12 12:58:53;;;;;;;7.05;3.60;;;18.50;90.10;;;;;;4888245;29;20084;-86